メインページ
METAR-TAF:

METAR-TAF

空港 :

プリンス・サイード・イブラヒーム国際空港

モロニ, コモロ

緯度: 11-32S, 経度: 043-16E, 海抜: 29m

METAR: 見つかりません

時間: 19:44 (16:44 UTC)

予報

当レポートは2時間44分前の14:00(UTC)に作成
予報は27日の 12時(UTC)から 28日の 18時(UTC)まで有効
の風 10kt
視程10km以上
高度2000ftの雲はほとんどない, 積乱雲.
高度2200ftの千切れ雲あり
小雨
確率 40% :
27日の 14時(UTC)から 27日の 18時(UTC)まで一時的に
西/北西の風 16kt、最大26ktの突風を伴う
視程: 2000m
激しい雷雨, 雨, にわか雨
27日の 15時(UTC)から 27日の 18時(UTC)まで徐々に
の風 5kt
高度2000ftの雲は散在している
高度3000ftの雲は散在している
確率 30% :
27日の 18時(UTC)から 28日の 03時(UTC)まで一時的に
視程: 4000m
高度2000ftの雲は散在している, 積乱雲.
激しい雷雨, にわか雨
28日の 05時(UTC)から 28日の 07時(UTC)まで徐々に
北/北西の風 12kt

TAF: FMCH 271400Z 2712/2818 18010KT 9999 -RA FEW020CB BKN022 PROB40 TEMPO 2714/2718 30016G26KT 2000 TSRA SHRA BECMG 2715/2718 10005KT SCT020 SCT030 PROB30 TEMPO 2718/2803 4000 TS SHRA SCT020CB BECMG 2805/2807 33012KT

4,000以上の空港の気象観測と天気予報(METAR報とTAF報)

利用可能な観測所は地図上に黄色い丸と赤い丸で示す。

丸の上にカーソルを重ねると観測所名を参照できる。

次にクリックすると気象観測と天気予報を参照できる。

マップの切り替え:黒色「×」印の緑ボタンをクリックして拡大、「-」印の緑ボタンをクリックして縮小、緑色の三角印をクリックして隣りの地図に切り替え


METAR-TAF: